createdAt,value
2018-04-06T00:00:06.677Z,1.75
2018-04-06T00:01:27.756Z,1.69
2018-04-06T00:02:28.823Z,1.71
2018-04-06T00:03:09.322Z,1.75
2018-04-06T00:04:31.321Z,1.73
2018-04-06T00:05:10.279Z,1.64
2018-04-06T00:06:22.311Z,1.69
2018-04-06T00:07:08.852Z,1.60
2018-04-06T00:08:08.192Z,1.58
2018-04-06T00:09:11.350Z,1.58
2018-04-06T00:10:09.315Z,1.61
2018-04-06T00:11:23.320Z,1.50
2018-04-06T00:12:10.201Z,1.58
2018-04-06T00:13:16.806Z,1.54
2018-04-06T00:14:10.929Z,1.61
2018-04-06T00:15:34.269Z,1.71
2018-04-06T00:16:09.584Z,1.80
2018-04-06T00:17:12.488Z,1.71
2018-04-06T00:18:14.813Z,1.61
2018-04-06T00:19:16.815Z,1.62
2018-04-06T00:20:11.686Z,1.75
2018-04-06T00:21:12.313Z,1.61
2018-04-06T00:22:10.371Z,1.51
2018-04-06T00:23:12.763Z,1.46
2018-04-06T00:24:16.818Z,1.47
2018-04-06T00:25:11.810Z,1.43
2018-04-06T00:26:15.757Z,1.33
2018-04-06T00:27:11.819Z,1.28
2018-04-06T00:28:12.765Z,1.26
2018-04-06T00:29:12.160Z,1.25
2018-04-06T00:30:39.981Z,1.18
2018-04-06T00:31:15.755Z,1.19
2018-04-06T00:32:11.462Z,1.18
2018-04-06T00:33:13.385Z,1.07
2018-04-06T00:34:13.350Z,1.15
2018-04-06T00:35:14.041Z,1.07
2018-04-06T00:36:16.263Z,1.07
2018-04-06T00:37:15.264Z,1.08
2018-04-06T00:38:14.815Z,1.12
2018-04-06T00:39:14.278Z,1.10
2018-04-06T00:40:14.178Z,1.12
2018-04-06T00:41:13.674Z,1.16
2018-04-06T00:42:14.860Z,1.19
2018-04-06T00:43:14.821Z,1.12
2018-04-06T00:44:17.310Z,1.22
2018-04-06T00:45:13.551Z,1.16
2018-04-06T00:46:30.148Z,1.12
2018-04-06T00:47:15.817Z,1.10
2018-04-06T00:48:17.829Z,1.15
2018-04-06T00:49:35.264Z,1.18
2018-04-06T00:50:17.302Z,1.14
2018-04-06T00:51:14.628Z,0.98
2018-04-06T00:52:18.770Z,1.10
2018-04-06T00:53:18.022Z,1.12
2018-04-06T00:54:17.141Z,1.06
2018-04-06T00:55:18.819Z,1.08
2018-04-06T00:56:17.768Z,0.92
2018-04-06T00:57:19.515Z,0.98
2018-04-06T00:58:17.273Z,1.03
2018-04-06T00:59:17.768Z,0.94
2018-04-06T01:00:33.054Z,0.97
2018-04-06T01:01:17.248Z,0.89
2018-04-06T01:02:17.270Z,0.82
2018-04-06T01:03:20.313Z,0.80
2018-04-06T01:04:17.780Z,0.85
2018-04-06T01:05:19.473Z,0.83
2018-04-06T01:06:17.183Z,0.90
2018-04-06T01:07:20.827Z,0.90
2018-04-06T01:08:24.505Z,0.85
2018-04-06T01:09:24.335Z,0.90
2018-04-06T01:10:21.310Z,0.85
2018-04-06T01:11:35.312Z,0.80
2018-04-06T01:13:54.207Z,0.83
2018-04-06T01:14:54.725Z,0.79
2018-04-06T01:15:52.735Z,0.83
2018-04-06T01:16:51.075Z,0.78
2018-04-06T01:17:56.192Z,0.79
2018-04-06T01:18:51.451Z,0.71
2018-04-06T01:19:53.177Z,0.61
2018-04-06T01:20:52.680Z,0.72
2018-04-06T01:21:55.684Z,0.68
2018-04-06T01:23:13.019Z,0.67
2018-04-06T01:23:53.197Z,0.60
2018-04-06T01:24:53.405Z,0.68
2018-04-06T01:25:55.187Z,0.53
2018-04-06T01:26:54.720Z,0.45
2018-04-06T01:28:00.721Z,0.62
2018-04-06T01:28:55.362Z,0.51
2018-04-06T01:29:56.183Z,0.58
2018-04-06T01:31:17.680Z,0.53
2018-04-06T01:31:55.383Z,0.65
2018-04-06T01:32:55.728Z,0.67
2018-04-06T01:34:19.174Z,0.72
2018-04-06T01:34:55.112Z,0.57
2018-04-06T01:35:54.323Z,0.53
2018-04-06T01:36:56.603Z,0.62
2018-04-06T01:37:55.744Z,0.52
2018-04-06T01:39:11.731Z,0.52
2018-04-06T01:39:56.166Z,0.62
2018-04-06T01:40:56.174Z,0.60
2018-04-06T01:42:03.219Z,0.70
2018-04-06T01:43:02.232Z,0.75
2018-04-06T01:43:56.898Z,0.65
2018-04-06T01:44:59.729Z,0.61
2018-04-06T01:45:57.685Z,0.60
2018-04-06T01:46:56.190Z,0.51
2018-04-06T01:47:57.698Z,0.60
2018-04-06T01:48:58.249Z,0.57
2018-04-06T01:50:00.233Z,0.52
2018-04-06T01:51:04.730Z,0.58
2018-04-06T01:51:57.052Z,0.60
2018-04-06T01:53:00.237Z,0.41
2018-04-06T01:54:05.240Z,0.43
2018-04-06T01:54:59.239Z,0.38
2018-04-06T01:56:00.182Z,0.34
2018-04-06T01:57:02.727Z,0.27
2018-04-06T01:58:20.680Z,0.28
2018-04-06T01:59:06.236Z,0.34
2018-04-06T02:00:00.262Z,0.31
2018-04-06T02:01:02.239Z,0.33
2018-04-06T02:02:04.739Z,0.27
2018-04-06T02:02:59.181Z,0.30
2018-04-06T02:04:00.722Z,0.25
2018-04-06T02:05:15.222Z,0.16
2018-04-06T02:06:06.212Z,0.28
2018-04-06T02:07:01.074Z,0.33
2018-04-06T02:08:02.220Z,0.33
2018-04-06T02:09:01.737Z,0.31
2018-04-06T02:10:02.715Z,0.31
2018-04-06T02:11:00.168Z,0.36
2018-04-06T02:12:24.252Z,0.25
2018-04-06T02:13:25.218Z,0.33
2018-04-06T02:15:59.891Z,0.12
2018-04-06T02:16:36.921Z,0.25
2018-04-06T02:17:37.360Z,0.20
2018-04-06T02:18:42.083Z,0.18
2018-04-06T02:19:36.358Z,0.28
2018-04-06T02:20:37.909Z,0.18
2018-04-06T02:21:34.102Z,0.13
2018-04-06T02:22:35.322Z,0.12
2018-04-06T02:23:34.522Z,0.10
2018-04-06T02:24:37.117Z,0.13
2018-04-06T02:25:35.962Z,0.15
2018-04-06T02:27:00.856Z,0.23
2018-04-06T02:27:36.216Z,0.15
2018-04-06T02:28:35.297Z,0.13
2018-04-06T02:29:37.421Z,0.07
2018-04-06T02:30:35.638Z,0.10
2018-04-06T02:31:37.401Z,-0.01
2018-04-06T02:32:38.288Z,-0.01
2018-04-06T02:33:38.089Z,0.05
2018-04-06T02:34:37.328Z,0.00
2018-04-06T02:35:51.947Z,-0.08
2018-04-06T02:36:59.422Z,-0.04
2018-04-06T02:37:36.733Z,0.02
2018-04-06T02:38:37.985Z,-0.01
2018-04-06T02:39:38.540Z,-0.01
2018-04-06T02:40:39.874Z,0.05
2018-04-06T02:41:38.937Z,-0.06
2018-04-06T02:42:41.403Z,-0.04
2018-04-06T02:43:41.796Z,-0.05
2018-04-06T02:44:49.735Z,-0.08
2018-04-06T02:45:53.905Z,-0.09
2018-04-06T02:46:40.328Z,-0.16
2018-04-06T02:47:40.439Z,-0.16
2018-04-06T02:48:41.059Z,-0.16
2018-04-06T02:49:40.419Z,-0.13
2018-04-06T02:50:39.004Z,-0.09
2018-04-06T02:51:41.406Z,-0.13
2018-04-06T02:52:42.904Z,-0.18
2018-04-06T02:53:43.386Z,-0.19
2018-04-06T02:55:03.411Z,-0.06
2018-04-06T02:55:44.467Z,-0.34
2018-04-06T02:56:42.388Z,-0.29
2018-04-06T02:57:40.862Z,-0.36
2018-04-06T02:58:41.363Z,-0.33
2018-04-06T02:59:56.451Z,-0.30
2018-04-06T03:00:41.863Z,-0.27
2018-04-06T03:01:44.219Z,-0.24
2018-04-06T03:02:45.915Z,-0.19
2018-04-06T03:03:41.256Z,-0.24
2018-04-06T03:04:41.552Z,-0.19
2018-04-06T03:05:43.403Z,-0.22
2018-04-06T03:06:41.844Z,-0.26
2018-04-06T03:07:47.913Z,-0.24
2018-04-06T03:08:44.269Z,-0.13
2018-04-06T03:09:46.423Z,-0.16
2018-04-06T03:11:07.365Z,-0.11
2018-04-06T03:11:44.401Z,-0.12
2018-04-06T03:12:42.727Z,-0.19
2018-04-06T03:13:44.965Z,-0.16
2018-04-06T03:14:49.130Z,-0.08
2018-04-06T03:15:50.664Z,-0.18
2018-04-06T03:16:43.707Z,-0.27
2018-04-06T03:17:46.872Z,-0.18
2018-04-06T03:18:46.434Z,-0.16
2018-04-06T03:19:59.395Z,-0.19
2018-04-06T03:21:06.922Z,-0.13
2018-04-06T03:21:47.399Z,-0.22
2018-04-06T03:22:44.503Z,-0.22
2018-04-06T03:23:46.419Z,-0.22
2018-04-06T03:24:46.400Z,-0.23
2018-04-06T03:25:46.912Z,-0.24
2018-04-06T03:26:46.130Z,-0.36
2018-04-06T03:27:47.915Z,-0.29
2018-04-06T03:28:53.402Z,-0.29
2018-04-06T03:30:02.865Z,-0.37
2018-04-06T03:30:49.437Z,-0.29
2018-04-06T03:31:47.928Z,-0.42
2018-04-06T03:32:47.170Z,-0.27
2018-04-06T03:33:47.922Z,-0.33
2018-04-06T03:34:47.516Z,-0.30
2018-04-06T03:35:48.408Z,-0.34
2018-04-06T03:36:47.360Z,-0.36
2018-04-06T03:38:02.417Z,-0.37
2018-04-06T03:38:50.854Z,-0.39
2018-04-06T03:39:51.899Z,-0.39
2018-04-06T03:40:47.375Z,-0.37
2018-04-06T03:41:49.714Z,-0.34
2018-04-06T03:43:13.356Z,-0.26
2018-04-06T03:43:50.359Z,-0.23
2018-04-06T03:44:49.349Z,-0.33
2018-04-06T03:45:49.925Z,-0.37
2018-04-06T03:47:01.375Z,-0.26
2018-04-06T03:47:48.628Z,-0.33
2018-04-06T03:48:50.858Z,-0.34
2018-04-06T03:50:04.416Z,-0.29
2018-04-06T03:50:51.618Z,-0.51
2018-04-06T03:51:49.200Z,-0.34
2018-04-06T03:52:51.886Z,-0.37
2018-04-06T03:53:49.479Z,-0.29
2018-04-06T03:55:07.359Z,-0.29
2018-04-06T03:55:49.813Z,-0.22
2018-04-06T03:56:50.431Z,-0.36
2018-04-06T03:57:57.964Z,-0.41
2018-04-06T03:58:52.902Z,-0.45
2018-04-06T03:59:51.534Z,-0.41
2018-04-06T04:00:53.367Z,-0.30
2018-04-06T04:01:50.976Z,-0.37
2018-04-06T04:02:52.110Z,-0.42
2018-04-06T04:03:53.913Z,-0.50
2018-04-06T04:04:54.902Z,-0.47
2018-04-06T04:06:06.920Z,-0.59
2018-04-06T04:06:51.532Z,-0.48
2018-04-06T04:07:54.354Z,-0.44
2018-04-06T04:08:53.405Z,-0.54
2018-04-06T04:09:52.859Z,-0.57
2018-04-06T04:10:53.954Z,-0.55
2018-04-06T04:11:52.454Z,-0.69
2018-04-06T04:12:55.391Z,-0.62
2018-04-06T04:13:55.403Z,-0.60
2018-04-06T04:14:54.444Z,-0.57
2018-04-06T04:15:53.004Z,-0.62
2018-04-06T04:16:59.354Z,-0.69
2018-04-06T04:18:01.408Z,-0.62
2018-04-06T04:18:53.617Z,-0.66
2018-04-06T04:19:54.827Z,-0.62
2018-04-06T04:20:55.355Z,-0.77
2018-04-06T04:21:57.361Z,-0.91
2018-04-06T04:22:59.952Z,-0.83
2018-04-06T04:23:55.480Z,-0.89
2018-04-06T04:24:54.546Z,-0.87
2018-04-06T04:26:06.404Z,-0.97
2018-04-06T04:26:56.859Z,-0.94
2018-04-06T04:27:57.932Z,-1.05
2018-04-06T04:28:56.360Z,-0.94
2018-04-06T04:29:57.360Z,-0.89
2018-04-06T04:30:57.448Z,-0.78
2018-04-06T04:31:57.430Z,-0.92
2018-04-06T04:33:11.909Z,-0.78
2018-04-06T04:33:56.225Z,-0.75
2018-04-06T04:34:59.858Z,-0.86
2018-04-06T04:36:01.377Z,-0.83
2018-04-06T04:36:58.411Z,-0.68
2018-04-06T04:37:59.382Z,-0.63
2018-04-06T04:38:58.929Z,-0.66
2018-04-06T04:40:19.941Z,-0.63
2018-04-06T04:40:58.476Z,-0.69
2018-04-06T04:41:58.682Z,-0.68
2018-04-06T04:43:00.267Z,-0.65
2018-04-06T04:43:58.225Z,-0.83
2018-04-06T04:45:06.879Z,-0.65
2018-04-06T04:46:00.912Z,-0.69
2018-04-06T04:47:00.405Z,-0.70
2018-04-06T04:48:02.408Z,-0.70
2018-04-06T04:49:00.406Z,-0.63
2018-04-06T04:50:03.880Z,-0.75
2018-04-06T04:51:00.353Z,-0.70
2018-04-06T04:52:04.137Z,-0.73
2018-04-06T04:53:02.899Z,-0.84
2018-04-06T04:54:08.866Z,-0.73
2018-04-06T04:55:00.700Z,-0.70
2018-04-06T04:56:16.432Z,-0.68
2018-04-06T04:57:02.388Z,-0.62
2018-04-06T04:58:01.889Z,-0.60
2018-04-06T04:59:00.354Z,-0.60
2018-04-06T05:00:03.420Z,-0.72
2018-04-06T05:01:04.353Z,-0.70
2018-04-06T05:02:04.924Z,-0.63
2018-04-06T05:03:04.926Z,-0.60
2018-04-06T05:04:01.265Z,-0.57
2018-04-06T05:05:01.460Z,-0.48
2018-04-06T05:06:03.359Z,-0.54
2018-04-06T05:07:01.826Z,-0.48
2018-04-06T05:08:03.852Z,-0.44
2018-04-06T05:09:05.897Z,-0.62
2018-04-06T05:10:03.853Z,-0.51
2018-04-06T05:11:02.572Z,-0.57
2018-04-06T05:12:26.371Z,-0.41
2018-04-06T05:13:32.010Z,-0.51
2018-04-06T05:14:03.850Z,-0.50
2018-04-06T05:15:04.961Z,-0.34
2018-04-06T05:16:05.452Z,-0.39
2018-04-06T05:17:05.400Z,-0.30
2018-04-06T05:18:06.352Z,-0.29
2018-04-06T05:19:06.879Z,-0.26
2018-04-06T05:20:05.902Z,-0.31
2018-04-06T05:21:05.953Z,-0.41
2018-04-06T05:22:06.406Z,-0.31
2018-04-06T05:23:06.404Z,-0.23
2018-04-06T05:24:07.416Z,-0.16
2018-04-06T05:25:08.973Z,-0.33
2018-04-06T05:26:07.881Z,-0.34
2018-04-06T05:27:05.345Z,-0.16
2018-04-06T05:28:06.558Z,-0.19
2018-04-06T05:29:06.773Z,-0.19
2018-04-06T05:30:13.908Z,-0.19
2018-04-06T05:31:11.385Z,-0.22
2018-04-06T05:32:08.936Z,0.00
2018-04-06T05:33:07.397Z,0.02
2018-04-06T05:34:08.400Z,-0.04
2018-04-06T05:35:07.387Z,0.15
2018-04-06T05:36:06.876Z,0.16
2018-04-06T05:37:08.112Z,0.20
2018-04-06T05:38:07.609Z,0.30
2018-04-06T05:39:07.421Z,0.38
2018-04-06T05:40:08.396Z,0.45
2018-04-06T05:41:07.625Z,0.51
2018-04-06T05:42:10.351Z,0.57
2018-04-06T05:43:23.933Z,0.70
2018-04-06T05:44:09.141Z,0.72
2018-04-06T05:45:09.910Z,0.88
2018-04-06T05:46:24.455Z,0.90
2018-04-06T05:47:10.464Z,0.98
2018-04-06T05:48:08.799Z,1.18
2018-04-06T05:49:12.407Z,1.16
2018-04-06T05:50:09.126Z,1.08
2018-04-06T05:51:12.896Z,1.25
2018-04-06T05:52:09.851Z,1.25
2018-04-06T05:53:13.857Z,1.39
2018-04-06T05:54:11.413Z,1.44
2018-04-06T05:55:09.830Z,1.97
2018-04-06T05:56:10.641Z,2.08
2018-04-06T05:57:11.221Z,2.23
2018-04-06T05:58:14.462Z,2.67
2018-04-06T05:59:12.421Z,2.91
2018-04-06T06:00:14.402Z,2.59
2018-04-06T06:01:13.393Z,2.89
2018-04-06T06:02:14.956Z,2.94
2018-04-06T06:03:18.916Z,3.24
2018-04-06T06:04:37.394Z,3.43
2018-04-06T06:05:15.398Z,3.78
2018-04-06T06:06:32.721Z,4.19
2018-04-06T06:07:11.902Z,4.75
2018-04-06T06:08:18.923Z,5.19
2018-04-06T06:09:13.918Z,5.49
2018-04-06T06:10:13.905Z,5.52
2018-04-06T06:11:12.497Z,5.74
2018-04-06T06:12:12.712Z,6.10
2018-04-06T06:13:15.582Z,5.77
2018-04-06T06:14:13.076Z,5.75
2018-04-06T06:15:14.898Z,5.71
2018-04-06T06:16:13.349Z,5.13
2018-04-06T06:17:15.407Z,5.57
2018-04-06T06:18:15.406Z,6.29
2018-04-06T06:19:13.855Z,5.95
2018-04-06T06:20:14.057Z,5.20
2018-04-06T06:21:14.272Z,4.79
2018-04-06T06:22:14.486Z,4.51
2018-04-06T06:23:16.457Z,4.50
2018-04-06T06:24:14.866Z,4.57
2018-04-06T06:25:16.904Z,4.96
2018-04-06T06:26:15.228Z,5.23
2018-04-06T06:27:17.408Z,4.98
2018-04-06T06:28:15.615Z,5.60
2018-04-06T06:29:15.846Z,5.37
2018-04-06T06:30:17.032Z,6.29
2018-04-06T06:31:19.899Z,7.15
2018-04-06T06:32:16.475Z,7.60
2018-04-06T06:33:16.699Z,7.93
2018-04-06T06:34:16.907Z,8.30
2018-04-06T06:35:17.112Z,8.14
2018-04-06T06:36:17.339Z,8.25
2018-04-06T06:37:17.534Z,8.39
2018-04-06T06:38:17.746Z,8.50
2018-04-06T06:39:17.965Z,8.10
2018-04-06T06:40:18.174Z,8.12
2018-04-06T06:41:18.451Z,8.32
2018-04-06T06:42:18.603Z,8.47
2018-04-06T06:43:18.812Z,9.24
2018-04-06T06:44:19.029Z,8.79
2018-04-06T06:45:19.233Z,8.57
2018-04-06T06:46:19.452Z,8.78
2018-04-06T06:47:19.656Z,9.39
2018-04-06T06:48:19.860Z,9.18
2018-04-06T06:49:21.897Z,9.73
2018-04-06T06:50:20.240Z,9.67
2018-04-06T06:51:20.449Z,10.25
2018-04-06T06:52:22.416Z,10.07
2018-04-06T06:53:20.856Z,10.37
2018-04-06T06:54:21.112Z,9.45
2018-04-06T06:55:21.286Z,8.69
2018-04-06T06:56:21.499Z,8.53
2018-04-06T06:57:23.414Z,9.45
2018-04-06T06:58:21.874Z,9.56
2018-04-06T06:59:22.094Z,10.00
2018-04-06T07:00:22.309Z,10.07
2018-04-06T07:01:22.527Z,9.42
2018-04-06T07:02:22.740Z,10.56
2018-04-06T07:03:22.964Z,11.35
2018-04-06T07:04:23.173Z,11.59
2018-04-06T07:05:23.381Z,12.08
2018-04-06T07:06:23.603Z,12.41
2018-04-06T07:07:23.808Z,12.69
2018-04-06T07:08:25.910Z,12.84
2018-04-06T07:09:24.255Z,12.24
2018-04-06T07:10:24.518Z,12.84
2018-04-06T07:11:26.405Z,11.44
2018-04-06T07:12:24.862Z,11.80
2018-04-06T07:13:25.087Z,11.75
2018-04-06T07:14:27.979Z,12.24
2018-04-06T07:15:25.441Z,11.29
2018-04-06T07:16:25.661Z,12.01
2018-04-06T07:17:25.915Z,12.02
2018-04-06T07:18:26.122Z,11.49
2018-04-06T07:19:26.358Z,11.36
2018-04-06T07:20:26.595Z,10.70
2018-04-06T07:21:29.422Z,10.52
2018-04-06T07:22:27.089Z,10.76
2018-04-06T07:23:34.908Z,11.56
2018-04-06T07:24:28.912Z,11.21
2018-04-06T07:25:27.522Z,10.74
2018-04-06T07:26:29.409Z,10.44
2018-04-06T07:27:29.407Z,10.66
2018-04-06T07:28:29.960Z,11.06
2018-04-06T07:29:29.904Z,10.94
2018-04-06T07:30:29.906Z,10.32
2018-04-06T07:31:29.502Z,9.83
2018-04-06T07:32:31.487Z,9.71
2018-04-06T07:33:29.944Z,9.66
2018-04-06T07:34:29.146Z,9.32
2018-04-06T07:35:30.381Z,9.79
2018-04-06T07:36:31.425Z,9.85
2018-04-06T07:37:29.628Z,10.96
2018-04-06T07:38:30.427Z,10.60
2018-04-06T07:39:31.908Z,11.13
2018-04-06T07:40:31.941Z,10.65
2018-04-06T07:41:31.919Z,10.60
2018-04-06T07:42:30.551Z,10.84
2018-04-06T07:43:30.787Z,11.50
2018-04-06T07:44:32.911Z,11.80
2018-04-06T07:45:38.912Z,11.72
2018-04-06T07:46:32.916Z,11.72
2018-04-06T07:47:47.422Z,11.86
2018-04-06T07:48:33.410Z,12.19
2018-04-06T07:49:33.450Z,12.13
2018-04-06T07:50:34.981Z,12.27
2018-04-06T07:51:34.367Z,12.23
2018-04-06T07:52:35.913Z,12.57
2018-04-06T07:53:34.409Z,12.51
2018-04-06T07:54:33.627Z,12.84
2018-04-06T07:55:33.862Z,12.52
2018-04-06T07:56:34.919Z,12.30
2018-04-06T07:57:35.328Z,12.67
2018-04-06T07:58:33.422Z,13.69
2018-04-06T07:59:35.443Z,14.06
2018-04-06T08:00:33.801Z,14.60
2018-04-06T08:01:35.069Z,14.31
2018-04-06T08:02:41.906Z,14.16
2018-04-06T08:03:34.416Z,13.46
2018-04-06T08:04:36.443Z,13.89
2018-04-06T08:05:34.664Z,13.41
2018-04-06T08:06:50.426Z,13.22
2018-04-06T08:07:36.959Z,13.99
2018-04-06T08:08:41.936Z,14.47
2018-04-06T08:09:35.375Z,14.71
2018-04-06T08:10:37.457Z,15.63
2018-04-06T08:11:35.827Z,14.86
2018-04-06T08:12:36.084Z,14.27
2018-04-06T08:13:37.278Z,14.37
2018-04-06T08:14:36.520Z,13.52
2018-04-06T08:15:36.735Z,13.96
2018-04-06T08:16:38.936Z,13.80
2018-04-06T08:17:37.195Z,13.91
2018-04-06T08:18:38.909Z,15.15
2018-04-06T08:19:37.600Z,14.12
2018-04-06T08:20:40.369Z,15.01
2018-04-06T08:21:45.410Z,14.83
2018-04-06T08:22:38.029Z,14.62
2018-04-06T08:23:39.219Z,14.64
2018-04-06T08:24:39.417Z,14.13
2018-04-06T08:26:00.560Z,13.36
2018-04-06T08:26:39.404Z,14.46
2018-04-06T08:27:40.866Z,15.11
2018-04-06T08:28:42.915Z,14.01
2018-04-06T08:29:39.256Z,13.63
2018-04-06T08:30:39.537Z,14.06
2018-04-06T08:31:40.666Z,14.94
2018-04-06T08:32:41.436Z,14.78
2018-04-06T08:33:41.915Z,14.38
2018-04-06T08:34:40.256Z,14.32
2018-04-06T08:35:40.481Z,13.36
2018-04-06T08:38:27.336Z,12.71
2018-04-06T08:39:19.851Z,12.29
2018-04-06T08:40:14.270Z,12.92
2018-04-06T08:41:13.459Z,12.54
2018-04-06T08:42:13.717Z,13.25
2018-04-06T08:43:35.854Z,12.81
2018-04-06T08:44:14.055Z,13.84
2018-04-06T08:45:15.908Z,14.35
2018-04-06T08:46:17.306Z,13.46
2018-04-06T08:47:30.353Z,13.12
2018-04-06T08:48:18.378Z,12.95
2018-04-06T08:49:20.862Z,13.11
2018-04-06T08:50:15.216Z,13.99
2018-04-06T08:51:19.351Z,14.27
2018-04-06T08:52:18.327Z,15.31
2018-04-06T08:53:17.347Z,16.03
2018-04-06T08:54:17.882Z,16.48
2018-04-06T08:55:17.144Z,16.90
2018-04-06T08:56:16.251Z,16.88
2018-04-06T08:57:18.354Z,16.15
2018-04-06T08:58:16.708Z,15.76
2018-04-06T08:59:20.849Z,16.35
2018-04-06T09:00:24.825Z,16.01
2018-04-06T09:01:17.291Z,15.26
2018-04-06T09:02:33.347Z,14.93
2018-04-06T09:03:17.729Z,15.27
2018-04-06T09:04:20.475Z,15.59
2018-04-06T09:05:19.603Z,15.30
2018-04-06T09:06:21.357Z,14.43
2018-04-06T09:07:23.310Z,14.04
2018-04-06T09:08:20.354Z,14.65
2018-04-06T09:09:18.958Z,13.62
2018-04-06T09:10:20.885Z,14.38
2018-04-06T09:11:19.334Z,15.11
2018-04-06T09:12:23.357Z,15.05
2018-04-06T09:13:23.711Z,15.15
2018-04-06T09:14:19.938Z,14.49
2018-04-06T09:15:21.873Z,14.20
2018-04-06T09:16:21.852Z,13.36
2018-04-06T09:17:22.392Z,13.07
2018-04-06T09:18:21.683Z,13.54
2018-04-06T09:19:21.310Z,14.19
2018-04-06T09:20:24.852Z,15.13
2018-04-06T09:21:22.856Z,15.57
2018-04-06T09:22:22.907Z,15.09
2018-04-06T09:23:22.385Z,14.67
2018-04-06T09:24:23.395Z,13.98
2018-04-06T09:25:24.344Z,14.42
2018-04-06T09:26:22.928Z,14.25
2018-04-06T09:27:24.941Z,14.61
2018-04-06T09:28:23.901Z,14.60
2018-04-06T09:29:23.528Z,13.80
2018-04-06T09:30:27.103Z,13.63
2018-04-06T09:31:24.398Z,13.88
2018-04-06T09:32:22.994Z,14.62
2018-04-06T09:33:23.299Z,14.60
2018-04-06T09:34:25.411Z,15.08
2018-04-06T09:35:25.375Z,16.00
2018-04-06T09:36:23.893Z,16.00
2018-04-06T09:37:24.017Z,15.30
2018-04-06T09:38:27.854Z,14.98
2018-04-06T09:39:29.320Z,14.24
2018-04-06T09:40:28.358Z,14.34
2018-04-06T09:41:26.352Z,13.99
2018-04-06T09:42:27.082Z,14.29
2018-04-06T09:43:27.941Z,14.91
2018-04-06T09:44:32.368Z,14.84
2018-04-06T09:45:27.390Z,15.38
2018-04-06T09:46:28.856Z,15.30
2018-04-06T09:47:28.857Z,15.41
2018-04-06T09:48:27.867Z,16.26
2018-04-06T09:49:28.363Z,16.67
2018-04-06T09:50:30.412Z,16.85
2018-04-06T09:51:28.358Z,17.14
2018-04-06T09:52:30.854Z,16.75
2018-04-06T09:53:28.859Z,16.90
2018-04-06T09:54:30.859Z,15.41
2018-04-06T09:55:30.376Z,15.70
2018-04-06T09:56:32.335Z,16.50
2018-04-06T09:57:29.882Z,16.78
2018-04-06T09:58:28.142Z,15.93
2018-04-06T09:59:32.423Z,15.78
2018-04-06T10:00:30.411Z,15.68
2018-04-06T10:01:32.375Z,15.88
2018-04-06T10:02:28.725Z,16.70
2018-04-06T10:03:31.630Z,17.04
2018-04-06T10:04:30.184Z,17.03
2018-04-06T10:05:36.907Z,16.83
2018-04-06T10:06:29.388Z,16.44
2018-04-06T10:07:30.673Z,17.03
2018-04-06T10:08:32.408Z,17.30
2018-04-06T10:09:31.069Z,17.00
2018-04-06T10:10:31.862Z,16.63
2018-04-06T10:11:30.356Z,17.03
2018-04-06T10:12:31.457Z,17.43
2018-04-06T10:13:33.320Z,17.14
2018-04-06T10:14:33.357Z,17.43
2018-04-06T10:15:30.982Z,17.43
2018-04-06T10:16:31.103Z,17.59
2018-04-06T10:17:32.905Z,17.54
2018-04-06T10:18:33.362Z,17.04
2018-04-06T10:19:31.727Z,16.48
2018-04-06T10:20:31.964Z,16.67
2018-04-06T10:21:33.857Z,17.03
2018-04-06T10:22:32.336Z,16.85
2018-04-06T10:23:32.574Z,16.85
2018-04-06T10:24:32.787Z,16.99
2018-04-06T10:25:36.893Z,17.62
2018-04-06T10:26:36.906Z,17.85
2018-04-06T10:27:33.406Z,18.03
2018-04-06T10:28:34.871Z,17.62
2018-04-06T10:29:33.667Z,17.15
2018-04-06T10:30:36.821Z,17.26
2018-04-06T10:31:35.064Z,18.04
2018-04-06T10:32:35.326Z,17.59
2018-04-06T10:33:36.413Z,17.08
2018-04-06T10:34:38.407Z,17.51
2018-04-06T10:35:34.825Z,17.99
2018-04-06T10:36:35.081Z,17.99
2018-04-06T10:37:35.262Z,18.97
2018-04-06T10:38:37.359Z,18.52
2018-04-06T10:39:38.408Z,19.14
2018-04-06T10:40:35.891Z,19.63
2018-04-06T10:41:36.121Z,19.36
2018-04-06T10:42:39.861Z,19.13
2018-04-06T10:43:36.578Z,18.84
2018-04-06T10:44:39.320Z,18.90
2018-04-06T10:45:40.859Z,18.25
2018-04-06T10:46:41.123Z,17.43
2018-04-06T10:47:43.895Z,16.38
2018-04-06T10:48:38.307Z,15.70
2018-04-06T10:49:37.724Z,15.93
2018-04-06T10:50:41.868Z,16.03
2018-04-06T10:51:41.866Z,15.76
2018-04-06T10:52:39.869Z,16.65
2018-04-06T10:53:38.593Z,17.50
2018-04-06T10:54:40.360Z,18.37
2018-04-06T10:55:54.925Z,17.18
2018-04-06T10:56:40.865Z,16.42
2018-04-06T10:57:39.267Z,15.81
2018-04-06T10:58:41.392Z,15.60
2018-04-06T10:59:41.362Z,15.45
2018-04-06T11:00:39.837Z,15.09
2018-04-06T11:01:42.917Z,14.84
2018-04-06T11:02:41.863Z,15.92
2018-04-06T11:03:42.388Z,15.48
2018-04-06T11:04:40.651Z,15.89
2018-04-06T11:05:42.361Z,16.12
2018-04-06T11:06:40.992Z,16.99
2018-04-06T11:07:42.210Z,16.86
2018-04-06T11:08:41.423Z,17.20
2018-04-06T11:09:49.360Z,16.81
2018-04-06T11:10:49.363Z,16.99
2018-04-06T11:11:41.982Z,16.48
2018-04-06T11:12:42.080Z,16.04
2018-04-06T11:13:43.907Z,16.04
2018-04-06T11:14:42.488Z,16.58
2018-04-06T11:15:42.641Z,17.00
2018-04-06T11:16:44.414Z,16.86
2018-04-06T11:17:42.906Z,16.53
2018-04-06T11:18:44.864Z,16.30
2018-04-06T11:19:45.065Z,15.54
2018-04-06T11:20:43.564Z,16.00
2018-04-06T11:21:48.376Z,16.89
2018-04-06T11:22:46.095Z,17.53
2018-04-06T11:23:44.186Z,17.15
2018-04-06T11:24:44.317Z,17.20
2018-04-06T11:25:44.579Z,17.63
2018-04-06T11:26:48.366Z,17.47
2018-04-06T11:27:47.884Z,18.06
2018-04-06T11:28:48.314Z,17.47
2018-04-06T11:29:46.872Z,17.17
2018-04-06T11:30:47.335Z,17.36
2018-04-06T11:31:47.392Z,17.40
2018-04-06T11:32:45.865Z,17.18
2018-04-06T11:33:48.120Z,16.41
2018-04-06T11:34:46.483Z,16.25
2018-04-06T11:35:49.320Z,16.45
2018-04-06T11:36:48.414Z,16.40
2018-04-06T11:37:47.756Z,16.52
2018-04-06T11:38:50.375Z,16.14
2018-04-06T11:39:54.889Z,17.00
2018-04-06T11:40:47.228Z,16.42
2018-04-06T11:41:48.323Z,17.63
2018-04-06T11:42:49.393Z,17.25
2018-04-06T11:43:52.329Z,16.95
2018-04-06T11:44:49.816Z,17.91
2018-04-06T11:45:49.897Z,18.46
2018-04-06T11:46:50.393Z,16.60
2018-04-06T11:47:53.349Z,16.73
2018-04-06T11:48:50.869Z,17.57
2018-04-06T11:49:50.869Z,17.04
2018-04-06T11:50:49.343Z,17.18
2018-04-06T11:51:49.629Z,17.06
2018-04-06T11:52:57.380Z,16.50
2018-04-06T11:53:51.868Z,15.68
2018-04-06T11:54:51.872Z,15.60
2018-04-06T11:55:50.365Z,16.59
2018-04-06T11:56:50.488Z,17.15
2018-04-06T11:57:50.721Z,17.55
2018-04-06T11:58:52.871Z,17.23
2018-04-06T11:59:54.916Z,16.83
2018-04-06T12:00:52.876Z,16.48
2018-04-06T12:01:51.519Z,16.40
2018-04-06T12:02:54.398Z,16.41
2018-04-06T12:03:58.373Z,16.67
2018-04-06T12:04:53.869Z,16.09
2018-04-06T12:05:53.123Z,16.15
2018-04-06T12:06:52.248Z,15.85
2018-04-06T12:08:08.398Z,16.09
2018-04-06T12:08:53.761Z,16.20
2018-04-06T12:09:52.876Z,16.25
2018-04-06T12:10:54.872Z,16.67
2018-04-06T12:11:54.879Z,16.59
2018-04-06T12:13:15.884Z,17.28
2018-04-06T12:13:55.405Z,17.85
2018-04-06T12:14:54.755Z,18.09
2018-04-06T12:15:59.876Z,18.80
2018-04-06T12:16:55.579Z,18.04
2018-04-06T12:17:55.881Z,18.92
2018-04-06T12:18:54.485Z,18.64
2018-04-06T12:19:55.709Z,18.74
2018-04-06T12:20:54.928Z,18.28
2018-04-06T12:21:55.171Z,18.52
2018-04-06T12:23:01.876Z,18.87
2018-04-06T12:23:55.470Z,18.94
2018-04-06T12:24:55.725Z,19.06
2018-04-06T12:25:57.908Z,18.87
2018-04-06T12:26:57.134Z,19.38
2018-04-06T12:27:57.366Z,19.61
2018-04-06T12:28:57.348Z,19.91
2018-04-06T12:29:58.375Z,19.47
2018-04-06T12:30:58.873Z,19.95
2018-04-06T12:32:04.870Z,18.64
2018-04-06T12:32:57.468Z,17.76
2018-04-06T12:33:57.746Z,18.37
2018-04-06T12:35:05.892Z,18.77
2018-04-06T12:35:59.887Z,18.95
2018-04-06T12:36:58.235Z,18.86
2018-04-06T12:37:58.995Z,18.59
2018-04-06T12:39:00.389Z,19.15
2018-04-06T12:39:59.872Z,19.01
2018-04-06T12:41:00.880Z,19.02
2018-04-06T12:42:04.918Z,19.53
2018-04-06T12:42:59.643Z,19.54
2018-04-06T12:44:07.401Z,19.87
2018-04-06T12:45:01.392Z,20.41
2018-04-06T12:46:01.884Z,20.15
2018-04-06T12:47:01.883Z,19.57
2018-04-06T12:48:00.478Z,18.95
2018-04-06T12:49:00.693Z,18.58
2018-04-06T12:50:00.842Z,17.54
2018-04-06T12:51:02.084Z,16.49
2018-04-06T12:52:02.186Z,16.26
2018-04-06T12:53:01.477Z,16.95
2018-04-06T12:54:07.661Z,17.14
2018-04-06T12:55:04.239Z,17.35
2018-04-06T12:56:01.973Z,17.51
2018-04-06T12:57:03.940Z,17.55
2018-04-06T12:58:04.373Z,17.66
2018-04-06T12:59:02.598Z,17.76
2018-04-06T13:00:04.402Z,18.36
2018-04-06T13:01:03.032Z,19.10
2018-04-06T13:02:03.159Z,19.78
2018-04-06T13:03:03.450Z,19.98
2018-04-06T13:04:03.592Z,18.86
2018-04-06T13:05:05.392Z,17.32
2018-04-06T13:06:05.880Z,16.90
2018-04-06T13:07:05.879Z,16.62